sensor_id;sensor_type;location;lat;lon;timestamp;temperature;humidity
2050;DHT22;8478;49.208;8.806;2023-02-13T00:02:12;8.80;99.90
2050;DHT22;8478;49.208;8.806;2023-02-13T00:04:38;8.80;99.90
2050;DHT22;8478;49.208;8.806;2023-02-13T00:07:04;8.80;99.90
2050;DHT22;8478;49.208;8.806;2023-02-13T00:09:30;8.80;99.90
2050;DHT22;8478;49.208;8.806;2023-02-13T00:11:55;8.80;99.90
2050;DHT22;8478;49.208;8.806;2023-02-13T00:14:21;8.80;99.90
2050;DHT22;8478;49.208;8.806;2023-02-13T00:16:47;8.80;99.90
2050;DHT22;8478;49.208;8.806;2023-02-13T00:19:12;8.80;99.90
2050;DHT22;8478;49.208;8.806;2023-02-13T00:21:38;8.80;99.90
2050;DHT22;8478;49.208;8.806;2023-02-13T00:24:04;8.80;99.90
2050;DHT22;8478;49.208;8.806;2023-02-13T00:26:30;8.80;99.90
2050;DHT22;8478;49.208;8.806;2023-02-13T00:28:56;8.80;99.90
2050;DHT22;8478;49.208;8.806;2023-02-13T00:31:22;8.80;99.90
2050;DHT22;8478;49.208;8.806;2023-02-13T00:33:48;8.80;99.90
2050;DHT22;8478;49.208;8.806;2023-02-13T00:36:20;8.80;99.90
2050;DHT22;8478;49.208;8.806;2023-02-13T00:38:47;8.80;99.90
2050;DHT22;8478;49.208;8.806;2023-02-13T00:41:14;8.80;99.90
2050;DHT22;8478;49.208;8.806;2023-02-13T00:43:42;8.70;99.90
2050;DHT22;8478;49.208;8.806;2023-02-13T00:46:07;8.80;99.90
2050;DHT22;8478;49.208;8.806;2023-02-13T00:48:34;8.70;99.90
2050;DHT22;8478;49.208;8.806;2023-02-13T00:51:00;8.80;99.90
2050;DHT22;8478;49.208;8.806;2023-02-13T00:53:26;8.70;99.90
2050;DHT22;8478;49.208;8.806;2023-02-13T00:55:52;8.70;99.90
2050;DHT22;8478;49.208;8.806;2023-02-13T00:58:19;8.70;99.90
2050;DHT22;8478;49.208;8.806;2023-02-13T01:00:45;8.80;99.90
2050;DHT22;8478;49.208;8.806;2023-02-13T01:03:14;8.70;99.90
2050;DHT22;8478;49.208;8.806;2023-02-13T01:05:41;8.70;99.90
2050;DHT22;8478;49.208;8.806;2023-02-13T01:08:06;8.70;99.90
2050;DHT22;8478;49.208;8.806;2023-02-13T01:10:32;8.70;99.90
2050;DHT22;8478;49.208;8.806;2023-02-13T01:12:58;8.70;99.90
2050;DHT22;8478;49.208;8.806;2023-02-13T01:15:23;8.70;99.90
2050;DHT22;8478;49.208;8.806;2023-02-13T01:17:52;8.70;99.90
2050;DHT22;8478;49.208;8.806;2023-02-13T01:20:19;8.70;99.90
2050;DHT22;8478;49.208;8.806;2023-02-13T01:22:44;8.70;99.90
2050;DHT22;8478;49.208;8.806;2023-02-13T01:25:10;8.70;99.90
2050;DHT22;8478;49.208;8.806;2023-02-13T01:27:36;8.70;99.90
2050;DHT22;8478;49.208;8.806;2023-02-13T01:30:04;8.70;99.90
2050;DHT22;8478;49.208;8.806;2023-02-13T01:32:30;8.70;99.90
2050;DHT22;8478;49.208;8.806;2023-02-13T01:34:56;8.70;99.90
2050;DHT22;8478;49.208;8.806;2023-02-13T01:37:21;8.70;99.90
2050;DHT22;8478;49.208;8.806;2023-02-13T01:39:47;8.70;99.90
2050;DHT22;8478;49.208;8.806;2023-02-13T01:42:23;8.70;99.90
2050;DHT22;8478;49.208;8.806;2023-02-13T01:44:58;8.70;99.90
2050;DHT22;8478;49.208;8.806;2023-02-13T01:47:38;8.70;99.90
2050;DHT22;8478;49.208;8.806;2023-02-13T01:52:48;8.70;99.90
2050;DHT22;8478;49.208;8.806;2023-02-13T01:55:16;8.70;99.90
2050;DHT22;8478;49.208;8.806;2023-02-13T01:57:48;8.70;99.90
2050;DHT22;8478;49.208;8.806;2023-02-13T02:00:15;8.70;99.90
2050;DHT22;8478;49.208;8.806;2023-02-13T02:02:49;8.70;99.90
2050;DHT22;8478;49.208;8.806;2023-02-13T02:05:17;8.60;99.90
2050;DHT22;8478;49.208;8.806;2023-02-13T02:07:44;8.70;99.90
2050;DHT22;8478;49.208;8.806;2023-02-13T02:10:14;8.60;99.90
2050;DHT22;8478;49.208;8.806;2023-02-13T02:15:17;8.60;99.90
2050;DHT22;8478;49.208;8.806;2023-02-13T02:17:43;8.60;99.90
2050;DHT22;8478;49.208;8.806;2023-02-13T02:34:43;8.60;99.90
2050;DHT22;8478;49.208;8.806;2023-02-13T02:40:10;8.60;99.90
2050;DHT22;8478;49.208;8.806;2023-02-13T02:43:29;8.60;99.90
2050;DHT22;8478;49.208;8.806;2023-02-13T02:45:55;8.60;99.90
2050;DHT22;8478;49.208;8.806;2023-02-13T02:51:47;8.60;99.90
2050;DHT22;8478;49.208;8.806;2023-02-13T02:54:21;8.60;99.90
2050;DHT22;8478;49.208;8.806;2023-02-13T02:57:19;8.60;99.90
2050;DHT22;8478;49.208;8.806;2023-02-13T02:59:48;8.60;99.90
2050;DHT22;8478;49.208;8.806;2023-02-13T03:02:33;8.60;99.90
2050;DHT22;8478;49.208;8.806;2023-02-13T03:05:29;8.60;99.90
2050;DHT22;8478;49.208;8.806;2023-02-13T03:08:15;8.60;99.90
2050;DHT22;8478;49.208;8.806;2023-02-13T03:11:01;8.60;99.90
2050;DHT22;8478;49.208;8.806;2023-02-13T03:13:48;8.60;99.90
2050;DHT22;8478;49.208;8.806;2023-02-13T03:16:23;8.60;99.90
2050;DHT22;8478;49.208;8.806;2023-02-13T03:19:27;8.60;99.90
2050;DHT22;8478;49.208;8.806;2023-02-13T03:25:20;8.60;99.90
2050;DHT22;8478;49.208;8.806;2023-02-13T03:28:05;8.60;99.90
2050;DHT22;8478;49.208;8.806;2023-02-13T03:31:14;8.60;99.90
2050;DHT22;8478;49.208;8.806;2023-02-13T03:34:18;8.60;99.90
2050;DHT22;8478;49.208;8.806;2023-02-13T03:37:02;8.60;99.90
2050;DHT22;8478;49.208;8.806;2023-02-13T03:39:59;8.60;99.90
2050;DHT22;8478;49.208;8.806;2023-02-13T03:42:39;8.50;99.90
2050;DHT22;8478;49.208;8.806;2023-02-13T03:45:27;8.60;99.90
2050;DHT22;8478;49.208;8.806;2023-02-13T03:48:14;8.60;99.90
2050;DHT22;8478;49.208;8.806;2023-02-13T03:51:00;8.50;99.90
2050;DHT22;8478;49.208;8.806;2023-02-13T03:53:30;8.60;99.90
2050;DHT22;8478;49.208;8.806;2023-02-13T03:55:58;8.60;99.90
2050;DHT22;8478;49.208;8.806;2023-02-13T03:58:48;8.50;99.90
2050;DHT22;8478;49.208;8.806;2023-02-13T04:01:34;8.60;99.90
2050;DHT22;8478;49.208;8.806;2023-02-13T04:04:16;8.60;99.90
2050;DHT22;8478;49.208;8.806;2023-02-13T04:07:00;8.60;99.90
2050;DHT22;8478;49.208;8.806;2023-02-13T04:09:28;8.50;99.90
2050;DHT22;8478;49.208;8.806;2023-02-13T04:14:49;8.50;99.90
2050;DHT22;8478;49.208;8.806;2023-02-13T04:17:28;8.50;99.90
2050;DHT22;8478;49.208;8.806;2023-02-13T04:19:55;8.50;99.90
2050;DHT22;8478;49.208;8.806;2023-02-13T04:22:21;8.60;99.90
2050;DHT22;8478;49.208;8.806;2023-02-13T04:24:46;8.50;99.90
2050;DHT22;8478;49.208;8.806;2023-02-13T04:27:14;8.50;99.90
2050;DHT22;8478;49.208;8.806;2023-02-13T04:29:40;8.50;99.90
2050;DHT22;8478;49.208;8.806;2023-02-13T04:32:07;8.50;99.90
2050;DHT22;8478;49.208;8.806;2023-02-13T04:34:33;8.50;99.90
2050;DHT22;8478;49.208;8.806;2023-02-13T04:36:59;8.50;99.90
2050;DHT22;8478;49.208;8.806;2023-02-13T04:39:25;8.50;99.90
2050;DHT22;8478;49.208;8.806;2023-02-13T04:41:50;8.50;99.90
2050;DHT22;8478;49.208;8.806;2023-02-13T04:44:16;8.50;99.90
2050;DHT22;8478;49.208;8.806;2023-02-13T04:46:41;8.50;99.90
2050;DHT22;8478;49.208;8.806;2023-02-13T04:49:08;8.50;99.90
2050;DHT22;8478;49.208;8.806;2023-02-13T04:51:34;8.50;99.90
2050;DHT22;8478;49.208;8.806;2023-02-13T04:54:00;8.50;99.90
2050;DHT22;8478;49.208;8.806;2023-02-13T04:56:25;8.50;99.90
2050;DHT22;8478;49.208;8.806;2023-02-13T04:58:51;8.50;99.90
2050;DHT22;8478;49.208;8.806;2023-02-13T05:01:17;8.50;99.90
2050;DHT22;8478;49.208;8.806;2023-02-13T05:03:42;8.50;99.90
2050;DHT22;8478;49.208;8.806;2023-02-13T05:06:08;8.50;99.90
2050;DHT22;8478;49.208;8.806;2023-02-13T05:08:34;8.50;99.90
2050;DHT22;8478;49.208;8.806;2023-02-13T05:11:00;8.50;99.90
2050;DHT22;8478;49.208;8.806;2023-02-13T05:13:25;8.50;99.90
2050;DHT22;8478;49.208;8.806;2023-02-13T05:15:51;8.60;99.90
2050;DHT22;8478;49.208;8.806;2023-02-13T05:18:18;8.50;99.90
2050;DHT22;8478;49.208;8.806;2023-02-13T05:20:43;8.50;99.90
2050;DHT22;8478;49.208;8.806;2023-02-13T05:23:13;8.50;99.90
2050;DHT22;8478;49.208;8.806;2023-02-13T05:25:49;8.50;99.90
2050;DHT22;8478;49.208;8.806;2023-02-13T05:28:14;8.50;99.90
2050;DHT22;8478;49.208;8.806;2023-02-13T05:30:59;8.50;99.90
2050;DHT22;8478;49.208;8.806;2023-02-13T05:33:25;8.50;99.90
2050;DHT22;8478;49.208;8.806;2023-02-13T05:35:51;8.50;99.90
2050;DHT22;8478;49.208;8.806;2023-02-13T05:38:16;8.50;99.90
2050;DHT22;8478;49.208;8.806;2023-02-13T05:40:42;8.50;99.90
2050;DHT22;8478;49.208;8.806;2023-02-13T05:43:08;8.50;99.90
2050;DHT22;8478;49.208;8.806;2023-02-13T05:45:33;8.50;99.90
2050;DHT22;8478;49.208;8.806;2023-02-13T05:47:59;8.50;99.90
2050;DHT22;8478;49.208;8.806;2023-02-13T05:50:25;8.50;99.90
2050;DHT22;8478;49.208;8.806;2023-02-13T05:52:50;8.50;99.90
2050;DHT22;8478;49.208;8.806;2023-02-13T05:55:16;8.50;99.90
2050;DHT22;8478;49.208;8.806;2023-02-13T05:57:42;8.50;99.90
2050;DHT22;8478;49.208;8.806;2023-02-13T06:00:07;8.50;99.90
2050;DHT22;8478;49.208;8.806;2023-02-13T06:02:33;8.50;99.90
2050;DHT22;8478;49.208;8.806;2023-02-13T06:04:59;8.50;99.90
2050;DHT22;8478;49.208;8.806;2023-02-13T06:07:24;8.50;99.90
2050;DHT22;8478;49.208;8.806;2023-02-13T06:09:50;8.50;99.90
2050;DHT22;8478;49.208;8.806;2023-02-13T06:12:16;8.50;99.90
2050;DHT22;8478;49.208;8.806;2023-02-13T06:14:41;8.50;99.90
2050;DHT22;8478;49.208;8.806;2023-02-13T06:17:07;8.50;99.90
2050;DHT22;8478;49.208;8.806;2023-02-13T06:19:33;8.50;99.90
2050;DHT22;8478;49.208;8.806;2023-02-13T06:21:58;8.50;99.90
2050;DHT22;8478;49.208;8.806;2023-02-13T06:24:24;8.50;99.90
2050;DHT22;8478;49.208;8.806;2023-02-13T06:26:50;8.50;99.90
2050;DHT22;8478;49.208;8.806;2023-02-13T06:29:15;8.50;99.90
2050;DHT22;8478;49.208;8.806;2023-02-13T06:31:41;8.50;99.90
2050;DHT22;8478;49.208;8.806;2023-02-13T06:34:07;8.50;99.90
2050;DHT22;8478;49.208;8.806;2023-02-13T06:36:33;8.50;99.90
2050;DHT22;8478;49.208;8.806;2023-02-13T06:38:58;8.50;99.90
2050;DHT22;8478;49.208;8.806;2023-02-13T06:41:24;8.50;99.90
2050;DHT22;8478;49.208;8.806;2023-02-13T06:43:50;8.50;99.90
2050;DHT22;8478;49.208;8.806;2023-02-13T06:46:15;8.50;99.90
2050;DHT22;8478;49.208;8.806;2023-02-13T06:48:41;8.50;99.90
2050;DHT22;8478;49.208;8.806;2023-02-13T06:51:06;8.50;99.90
2050;DHT22;8478;49.208;8.806;2023-02-13T06:53:32;8.50;99.90
2050;DHT22;8478;49.208;8.806;2023-02-13T06:55:58;8.50;99.90
2050;DHT22;8478;49.208;8.806;2023-02-13T06:58:24;8.50;99.90
2050;DHT22;8478;49.208;8.806;2023-02-13T07:00:50;8.50;99.90
2050;DHT22;8478;49.208;8.806;2023-02-13T07:03:16;8.50;99.90
2050;DHT22;8478;49.208;8.806;2023-02-13T07:05:43;8.50;99.90
2050;DHT22;8478;49.208;8.806;2023-02-13T07:08:10;8.50;99.90
2050;DHT22;8478;49.208;8.806;2023-02-13T07:10:37;8.50;99.90
2050;DHT22;8478;49.208;8.806;2023-02-13T07:13:03;8.50;99.90
2050;DHT22;8478;49.208;8.806;2023-02-13T07:15:29;8.50;99.90
2050;DHT22;8478;49.208;8.806;2023-02-13T07:17:58;8.50;99.90
2050;DHT22;8478;49.208;8.806;2023-02-13T07:20:25;8.50;99.90
2050;DHT22;8478;49.208;8.806;2023-02-13T07:22:50;8.50;99.90
2050;DHT22;8478;49.208;8.806;2023-02-13T07:25:17;8.50;99.90
2050;DHT22;8478;49.208;8.806;2023-02-13T07:27:43;8.50;99.90
2050;DHT22;8478;49.208;8.806;2023-02-13T07:30:09;8.50;99.90
2050;DHT22;8478;49.208;8.806;2023-02-13T07:32:35;8.50;99.90
2050;DHT22;8478;49.208;8.806;2023-02-13T07:35:00;8.50;99.90
2050;DHT22;8478;49.208;8.806;2023-02-13T07:37:27;8.50;99.90
2050;DHT22;8478;49.208;8.806;2023-02-13T07:39:53;8.50;99.90
2050;DHT22;8478;49.208;8.806;2023-02-13T07:42:19;8.50;99.90
2050;DHT22;8478;49.208;8.806;2023-02-13T07:44:45;8.50;99.90
2050;DHT22;8478;49.208;8.806;2023-02-13T07:47:10;8.50;99.90
2050;DHT22;8478;49.208;8.806;2023-02-13T07:49:36;8.50;99.90
2050;DHT22;8478;49.208;8.806;2023-02-13T07:52:03;8.50;99.90
2050;DHT22;8478;49.208;8.806;2023-02-13T07:54:29;8.50;99.90
2050;DHT22;8478;49.208;8.806;2023-02-13T07:56:55;8.50;99.90
2050;DHT22;8478;49.208;8.806;2023-02-13T07:59:21;8.50;99.90
2050;DHT22;8478;49.208;8.806;2023-02-13T08:01:46;8.50;99.90
2050;DHT22;8478;49.208;8.806;2023-02-13T08:04:12;8.50;99.90
2050;DHT22;8478;49.208;8.806;2023-02-13T08:06:39;8.50;99.90
2050;DHT22;8478;49.208;8.806;2023-02-13T08:09:05;8.50;99.90
2050;DHT22;8478;49.208;8.806;2023-02-13T08:11:50;8.40;99.90
2050;DHT22;8478;49.208;8.806;2023-02-13T08:14:23;8.40;99.90
2050;DHT22;8478;49.208;8.806;2023-02-13T08:16:50;8.50;99.90
2050;DHT22;8478;49.208;8.806;2023-02-13T08:19:16;8.50;99.90
2050;DHT22;8478;49.208;8.806;2023-02-13T08:21:42;8.50;99.90
2050;DHT22;8478;49.208;8.806;2023-02-13T08:24:08;8.50;99.90
2050;DHT22;8478;49.208;8.806;2023-02-13T08:26:34;8.50;99.90
2050;DHT22;8478;49.208;8.806;2023-02-13T08:29:00;8.40;99.90
2050;DHT22;8478;49.208;8.806;2023-02-13T08:31:26;8.40;99.90
2050;DHT22;8478;49.208;8.806;2023-02-13T08:33:52;8.40;99.90
2050;DHT22;8478;49.208;8.806;2023-02-13T08:36:17;8.50;99.90
2050;DHT22;8478;49.208;8.806;2023-02-13T08:38:46;8.40;99.90
2050;DHT22;8478;49.208;8.806;2023-02-13T08:41:12;8.50;99.90
2050;DHT22;8478;49.208;8.806;2023-02-13T08:43:38;8.40;99.90
2050;DHT22;8478;49.208;8.806;2023-02-13T08:46:03;8.50;99.90
2050;DHT22;8478;49.208;8.806;2023-02-13T08:48:29;8.40;99.90
2050;DHT22;8478;49.208;8.806;2023-02-13T08:50:55;8.40;99.90
2050;DHT22;8478;49.208;8.806;2023-02-13T08:53:20;8.50;99.90
2050;DHT22;8478;49.208;8.806;2023-02-13T08:55:53;8.40;99.90
2050;DHT22;8478;49.208;8.806;2023-02-13T08:58:20;8.40;99.90
2050;DHT22;8478;49.208;8.806;2023-02-13T09:00:45;8.40;99.90
2050;DHT22;8478;49.208;8.806;2023-02-13T09:03:11;8.40;99.90
2050;DHT22;8478;49.208;8.806;2023-02-13T09:05:37;8.40;99.90
2050;DHT22;8478;49.208;8.806;2023-02-13T09:08:02;8.40;99.90
2050;DHT22;8478;49.208;8.806;2023-02-13T09:10:32;8.40;99.90
2050;DHT22;8478;49.208;8.806;2023-02-13T09:12:58;8.40;99.90
2050;DHT22;8478;49.208;8.806;2023-02-13T09:15:23;8.40;99.90
2050;DHT22;8478;49.208;8.806;2023-02-13T09:17:50;8.40;99.90
2050;DHT22;8478;49.208;8.806;2023-02-13T09:20:15;8.40;99.90
2050;DHT22;8478;49.208;8.806;2023-02-13T09:22:41;8.40;99.90
2050;DHT22;8478;49.208;8.806;2023-02-13T09:25:07;8.40;99.90
2050;DHT22;8478;49.208;8.806;2023-02-13T09:27:34;8.40;99.90
2050;DHT22;8478;49.208;8.806;2023-02-13T09:30:00;8.50;99.90
2050;DHT22;8478;49.208;8.806;2023-02-13T09:32:26;8.40;99.90
2050;DHT22;8478;49.208;8.806;2023-02-13T09:34:52;8.40;99.90
2050;DHT22;8478;49.208;8.806;2023-02-13T09:37:18;8.40;99.90
2050;DHT22;8478;49.208;8.806;2023-02-13T09:39:44;8.40;99.90
2050;DHT22;8478;49.208;8.806;2023-02-13T09:42:22;8.40;99.90
2050;DHT22;8478;49.208;8.806;2023-02-13T09:45:00;8.40;99.90
2050;DHT22;8478;49.208;8.806;2023-02-13T09:52:36;8.40;99.90
2050;DHT22;8478;49.208;8.806;2023-02-13T09:55:20;8.40;99.90
2050;DHT22;8478;49.208;8.806;2023-02-13T09:57:57;8.40;99.90
2050;DHT22;8478;49.208;8.806;2023-02-13T10:00:34;8.40;99.90
2050;DHT22;8478;49.208;8.806;2023-02-13T10:06:38;8.40;99.90
2050;DHT22;8478;49.208;8.806;2023-02-13T10:09:15;8.50;99.90
2050;DHT22;8478;49.208;8.806;2023-02-13T10:14:22;8.40;99.90
2050;DHT22;8478;49.208;8.806;2023-02-13T10:17:03;8.40;99.90
2050;DHT22;8478;49.208;8.806;2023-02-13T10:19:46;8.40;99.90
2050;DHT22;8478;49.208;8.806;2023-02-13T10:22:19;8.40;99.90
2050;DHT22;8478;49.208;8.806;2023-02-13T10:24:47;8.50;99.90
2050;DHT22;8478;49.208;8.806;2023-02-13T10:27:39;8.40;99.90
2050;DHT22;8478;49.208;8.806;2023-02-13T10:30:17;8.40;99.90
2050;DHT22;8478;49.208;8.806;2023-02-13T10:38:30;8.40;99.90
2050;DHT22;8478;49.208;8.806;2023-02-13T10:43:48;8.50;99.90
2050;DHT22;8478;49.208;8.806;2023-02-13T10:55:12;8.50;99.90
2050;DHT22;8478;49.208;8.806;2023-02-13T11:00:52;8.40;99.90
2050;DHT22;8478;49.208;8.806;2023-02-13T11:03:22;8.40;99.90
2050;DHT22;8478;49.208;8.806;2023-02-13T11:05:49;8.40;99.90
2050;DHT22;8478;49.208;8.806;2023-02-13T11:08:22;8.40;99.90
2050;DHT22;8478;49.208;8.806;2023-02-13T11:10:49;8.40;99.90
2050;DHT22;8478;49.208;8.806;2023-02-13T11:13:21;8.40;99.90
2050;DHT22;8478;49.208;8.806;2023-02-13T11:16:05;8.50;99.90
2050;DHT22;8478;49.208;8.806;2023-02-13T11:18:34;8.50;99.90
2050;DHT22;8478;49.208;8.806;2023-02-13T11:21:19;8.50;99.90
2050;DHT22;8478;49.208;8.806;2023-02-13T11:23:53;8.50;99.90
2050;DHT22;8478;49.208;8.806;2023-02-13T11:26:21;8.50;99.90
2050;DHT22;8478;49.208;8.806;2023-02-13T11:28:55;8.50;99.90
2050;DHT22;8478;49.208;8.806;2023-02-13T11:31:26;8.50;99.90
2050;DHT22;8478;49.208;8.806;2023-02-13T11:33:52;8.50;99.90
2050;DHT22;8478;49.208;8.806;2023-02-13T11:36:25;8.50;99.90
2050;DHT22;8478;49.208;8.806;2023-02-13T11:39:05;8.50;99.90
2050;DHT22;8478;49.208;8.806;2023-02-13T11:41:39;8.50;99.90
2050;DHT22;8478;49.208;8.806;2023-02-13T11:44:19;8.50;99.90
2050;DHT22;8478;49.208;8.806;2023-02-13T11:46:48;8.50;99.90
2050;DHT22;8478;49.208;8.806;2023-02-13T11:49:31;8.50;99.90
2050;DHT22;8478;49.208;8.806;2023-02-13T11:52:03;8.50;99.90
2050;DHT22;8478;49.208;8.806;2023-02-13T11:54:38;8.50;99.90
2050;DHT22;8478;49.208;8.806;2023-02-13T11:57:32;8.60;99.90
2050;DHT22;8478;49.208;8.806;2023-02-13T12:00:00;8.50;99.90
2050;DHT22;8478;49.208;8.806;2023-02-13T12:02:31;8.50;99.90
2050;DHT22;8478;49.208;8.806;2023-02-13T12:05:21;8.50;99.90
2050;DHT22;8478;49.208;8.806;2023-02-13T12:07:47;8.60;99.90
2050;DHT22;8478;49.208;8.806;2023-02-13T12:10:23;8.50;99.90
2050;DHT22;8478;49.208;8.806;2023-02-13T12:15:34;8.50;99.90
2050;DHT22;8478;49.208;8.806;2023-02-13T12:18:12;8.50;99.90
2050;DHT22;8478;49.208;8.806;2023-02-13T12:20:56;8.60;99.90
2050;DHT22;8478;49.208;8.806;2023-02-13T12:47:00;8.60;99.90
2050;DHT22;8478;49.208;8.806;2023-02-13T12:49:59;8.60;99.90
2050;DHT22;8478;49.208;8.806;2023-02-13T12:52:47;8.60;99.90
2050;DHT22;8478;49.208;8.806;2023-02-13T12:59:04;8.60;99.90
2050;DHT22;8478;49.208;8.806;2023-02-13T13:12:40;8.60;99.90
2050;DHT22;8478;49.208;8.806;2023-02-13T13:16:08;8.60;99.90
2050;DHT22;8478;49.208;8.806;2023-02-13T13:20:55;8.70;99.90
2050;DHT22;8478;49.208;8.806;2023-02-13T13:23:49;8.70;99.90
2050;DHT22;8478;49.208;8.806;2023-02-13T13:26:34;8.70;99.90
2050;DHT22;8478;49.208;8.806;2023-02-13T13:29:06;8.70;99.90
2050;DHT22;8478;49.208;8.806;2023-02-13T13:31:35;8.70;99.90
2050;DHT22;8478;49.208;8.806;2023-02-13T13:34:06;8.70;99.90
2050;DHT22;8478;49.208;8.806;2023-02-13T13:36:49;8.70;99.90
2050;DHT22;8478;49.208;8.806;2023-02-13T13:39:59;8.70;99.90
2050;DHT22;8478;49.208;8.806;2023-02-13T13:45:17;8.70;99.90
2050;DHT22;8478;49.208;8.806;2023-02-13T13:50:30;8.70;99.90
2050;DHT22;8478;49.208;8.806;2023-02-13T13:53:12;8.70;99.90
2050;DHT22;8478;49.208;8.806;2023-02-13T13:56:00;8.70;99.90
2050;DHT22;8478;49.208;8.806;2023-02-13T13:58:42;8.70;99.90
2050;DHT22;8478;49.208;8.806;2023-02-13T14:03:42;8.80;99.90
2050;DHT22;8478;49.208;8.806;2023-02-13T14:06:14;8.80;99.90
2050;DHT22;8478;49.208;8.806;2023-02-13T14:11:31;8.80;99.90
2050;DHT22;8478;49.208;8.806;2023-02-13T14:13:58;8.80;99.90
2050;DHT22;8478;49.208;8.806;2023-02-13T14:16:50;8.80;99.90
2050;DHT22;8478;49.208;8.806;2023-02-13T14:19:25;8.80;99.90
2050;DHT22;8478;49.208;8.806;2023-02-13T14:21:53;8.80;99.90
2050;DHT22;8478;49.208;8.806;2023-02-13T14:24:21;8.80;99.90
2050;DHT22;8478;49.208;8.806;2023-02-13T14:26:52;8.80;99.90
2050;DHT22;8478;49.208;8.806;2023-02-13T14:29:23;8.80;99.90
2050;DHT22;8478;49.208;8.806;2023-02-13T14:32:17;8.80;99.90
2050;DHT22;8478;49.208;8.806;2023-02-13T14:34:55;8.80;99.90
2050;DHT22;8478;49.208;8.806;2023-02-13T14:37:28;8.80;99.90
2050;DHT22;8478;49.208;8.806;2023-02-13T14:43:00;8.80;99.90
2050;DHT22;8478;49.208;8.806;2023-02-13T14:45:32;8.80;99.90
2050;DHT22;8478;49.208;8.806;2023-02-13T14:48:05;8.90;99.90
2050;DHT22;8478;49.208;8.806;2023-02-13T14:50:43;8.90;99.90
2050;DHT22;8478;49.208;8.806;2023-02-13T14:53:42;8.90;99.90
2050;DHT22;8478;49.208;8.806;2023-02-13T14:56:14;8.90;99.90
2050;DHT22;8478;49.208;8.806;2023-02-13T14:58:52;8.90;99.90
2050;DHT22;8478;49.208;8.806;2023-02-13T15:01:33;8.90;99.90
2050;DHT22;8478;49.208;8.806;2023-02-13T15:06:51;8.90;99.90
2050;DHT22;8478;49.208;8.806;2023-02-13T15:09:29;8.90;99.90
2050;DHT22;8478;49.208;8.806;2023-02-13T15:11:57;8.90;99.90
2050;DHT22;8478;49.208;8.806;2023-02-13T15:14:27;8.90;99.90
2050;DHT22;8478;49.208;8.806;2023-02-13T15:19:30;8.90;99.90
2050;DHT22;8478;49.208;8.806;2023-02-13T15:22:02;8.90;99.90
2050;DHT22;8478;49.208;8.806;2023-02-13T15:24:42;8.90;99.90
2050;DHT22;8478;49.208;8.806;2023-02-13T15:27:19;8.90;99.90
2050;DHT22;8478;49.208;8.806;2023-02-13T15:32:23;8.90;99.90
2050;DHT22;8478;49.208;8.806;2023-02-13T15:34:50;8.90;99.90
2050;DHT22;8478;49.208;8.806;2023-02-13T15:37:24;8.90;99.90
2050;DHT22;8478;49.208;8.806;2023-02-13T15:39:51;8.90;99.90
2050;DHT22;8478;49.208;8.806;2023-02-13T15:42:17;8.90;99.90
2050;DHT22;8478;49.208;8.806;2023-02-13T15:44:46;8.90;99.90
2050;DHT22;8478;49.208;8.806;2023-02-13T15:47:30;8.90;99.90
2050;DHT22;8478;49.208;8.806;2023-02-13T15:49:57;8.90;99.90
2050;DHT22;8478;49.208;8.806;2023-02-13T15:52:31;9.00;99.90
2050;DHT22;8478;49.208;8.806;2023-02-13T15:54:58;9.00;99.90
2050;DHT22;8478;49.208;8.806;2023-02-13T15:57:25;9.00;99.90
2050;DHT22;8478;49.208;8.806;2023-02-13T15:59:53;9.00;99.90
2050;DHT22;8478;49.208;8.806;2023-02-13T16:02:22;9.00;99.90
2050;DHT22;8478;49.208;8.806;2023-02-13T16:04:51;9.00;99.90
2050;DHT22;8478;49.208;8.806;2023-02-13T16:07:17;9.00;99.90
2050;DHT22;8478;49.208;8.806;2023-02-13T16:09:43;9.00;99.90
2050;DHT22;8478;49.208;8.806;2023-02-13T16:12:26;9.00;99.90
2050;DHT22;8478;49.208;8.806;2023-02-13T16:14:58;9.30;99.90
2050;DHT22;8478;49.208;8.806;2023-02-13T16:17:32;9.60;99.90
2050;DHT22;8478;49.208;8.806;2023-02-13T16:27:38;10.00;99.90
2050;DHT22;8478;49.208;8.806;2023-02-13T16:30:37;9.70;99.90
2050;DHT22;8478;49.208;8.806;2023-02-13T16:35:40;9.30;99.90
2050;DHT22;8478;49.208;8.806;2023-02-13T16:44:02;9.20;99.90
2050;DHT22;8478;49.208;8.806;2023-02-13T16:46:42;9.10;99.90
2050;DHT22;8478;49.208;8.806;2023-02-13T16:49:18;9.10;99.90
2050;DHT22;8478;49.208;8.806;2023-02-13T16:51:56;9.10;99.90
2050;DHT22;8478;49.208;8.806;2023-02-13T17:04:45;9.10;99.90
2050;DHT22;8478;49.208;8.806;2023-02-13T17:07:17;9.10;99.90
2050;DHT22;8478;49.208;8.806;2023-02-13T17:09:43;9.10;99.90
2050;DHT22;8478;49.208;8.806;2023-02-13T17:12:14;9.10;99.90
2050;DHT22;8478;49.208;8.806;2023-02-13T17:14:40;9.10;99.90
2050;DHT22;8478;49.208;8.806;2023-02-13T17:17:15;9.10;99.90
2050;DHT22;8478;49.208;8.806;2023-02-13T17:19:41;9.10;99.90
2050;DHT22;8478;49.208;8.806;2023-02-13T17:22:15;9.00;99.90
2050;DHT22;8478;49.208;8.806;2023-02-13T17:24:42;9.00;99.90
2050;DHT22;8478;49.208;8.806;2023-02-13T17:27:09;9.00;99.90
2050;DHT22;8478;49.208;8.806;2023-02-13T17:29:35;9.00;99.90
2050;DHT22;8478;49.208;8.806;2023-02-13T17:32:01;9.00;99.90
2050;DHT22;8478;49.208;8.806;2023-02-13T17:34:27;9.00;99.90
2050;DHT22;8478;49.208;8.806;2023-02-13T17:36:52;9.00;99.90
2050;DHT22;8478;49.208;8.806;2023-02-13T17:39:19;9.00;99.90
2050;DHT22;8478;49.208;8.806;2023-02-13T17:41:44;9.00;99.90
2050;DHT22;8478;49.208;8.806;2023-02-13T17:44:13;9.00;99.90
2050;DHT22;8478;49.208;8.806;2023-02-13T17:46:39;9.00;99.90
2050;DHT22;8478;49.208;8.806;2023-02-13T17:49:05;9.00;99.90
2050;DHT22;8478;49.208;8.806;2023-02-13T17:51:31;9.00;99.90
2050;DHT22;8478;49.208;8.806;2023-02-13T17:53:57;9.00;99.90
2050;DHT22;8478;49.208;8.806;2023-02-13T17:56:22;9.00;99.90
2050;DHT22;8478;49.208;8.806;2023-02-13T17:58:48;9.00;99.90
2050;DHT22;8478;49.208;8.806;2023-02-13T18:01:14;9.00;99.90
2050;DHT22;8478;49.208;8.806;2023-02-13T18:03:39;9.00;99.90
2050;DHT22;8478;49.208;8.806;2023-02-13T18:06:09;9.00;99.90
2050;DHT22;8478;49.208;8.806;2023-02-13T18:08:35;9.00;99.90
2050;DHT22;8478;49.208;8.806;2023-02-13T18:11:01;9.00;99.90
2050;DHT22;8478;49.208;8.806;2023-02-13T18:13:26;9.00;99.90
2050;DHT22;8478;49.208;8.806;2023-02-13T18:15:52;9.00;99.90
2050;DHT22;8478;49.208;8.806;2023-02-13T18:18:18;9.00;99.90
2050;DHT22;8478;49.208;8.806;2023-02-13T18:20:43;9.00;99.90
2050;DHT22;8478;49.208;8.806;2023-02-13T18:23:09;9.00;99.90
2050;DHT22;8478;49.208;8.806;2023-02-13T18:25:35;9.00;99.90
2050;DHT22;8478;49.208;8.806;2023-02-13T18:28:01;9.00;99.90
2050;DHT22;8478;49.208;8.806;2023-02-13T18:30:27;9.00;99.90
2050;DHT22;8478;49.208;8.806;2023-02-13T18:32:56;9.00;99.90
2050;DHT22;8478;49.208;8.806;2023-02-13T18:35:24;9.00;99.90
2050;DHT22;8478;49.208;8.806;2023-02-13T18:37:50;9.00;99.90
2050;DHT22;8478;49.208;8.806;2023-02-13T18:40:15;9.00;99.90
2050;DHT22;8478;49.208;8.806;2023-02-13T18:42:42;9.00;99.90
2050;DHT22;8478;49.208;8.806;2023-02-13T18:45:09;8.90;99.90
2050;DHT22;8478;49.208;8.806;2023-02-13T18:47:36;9.00;99.90
2050;DHT22;8478;49.208;8.806;2023-02-13T18:50:02;9.00;99.90
2050;DHT22;8478;49.208;8.806;2023-02-13T18:52:28;8.90;99.90
2050;DHT22;8478;49.208;8.806;2023-02-13T18:54:53;8.90;99.90
2050;DHT22;8478;49.208;8.806;2023-02-13T18:57:19;8.90;99.90
2050;DHT22;8478;49.208;8.806;2023-02-13T18:59:44;8.90;99.90
2050;DHT22;8478;49.208;8.806;2023-02-13T19:02:10;8.90;99.90
2050;DHT22;8478;49.208;8.806;2023-02-13T19:04:36;8.90;99.90
2050;DHT22;8478;49.208;8.806;2023-02-13T19:07:02;9.00;99.90
2050;DHT22;8478;49.208;8.806;2023-02-13T19:09:28;8.90;99.90
2050;DHT22;8478;49.208;8.806;2023-02-13T19:11:53;8.90;99.90
2050;DHT22;8478;49.208;8.806;2023-02-13T19:14:19;8.90;99.90
2050;DHT22;8478;49.208;8.806;2023-02-13T19:16:46;8.90;99.90